sensor_id;sensor_type;location;lat;lon;timestamp;P1;durP1;ratioP1;P2;durP2;ratioP2
13002;SDS011;6566;57.702;11.984;2022-07-29T00:00:48;5.00;;;1.77;;
13002;SDS011;6566;57.702;11.984;2022-07-29T00:03:14;5.88;;;2.00;;
13002;SDS011;6566;57.702;11.984;2022-07-29T00:05:42;6.45;;;2.00;;
13002;SDS011;6566;57.702;11.984;2022-07-29T00:08:08;6.88;;;1.90;;
13002;SDS011;6566;57.702;11.984;2022-07-29T00:10:35;4.50;;;2.00;;
13002;SDS011;6566;57.702;11.984;2022-07-29T00:13:01;6.05;;;2.10;;
13002;SDS011;6566;57.702;11.984;2022-07-29T00:15:26;4.43;;;1.70;;
13002;SDS011;6566;57.702;11.984;2022-07-29T00:17:53;7.23;;;1.50;;
13002;SDS011;6566;57.702;11.984;2022-07-29T00:20:19;3.67;;;1.98;;
13002;SDS011;6566;57.702;11.984;2022-07-29T00:22:46;6.18;;;2.08;;
13002;SDS011;6566;57.702;11.984;2022-07-29T00:25:12;6.20;;;1.90;;
13002;SDS011;6566;57.702;11.984;2022-07-29T00:27:39;7.32;;;2.17;;
13002;SDS011;6566;57.702;11.984;2022-07-29T00:30:06;5.10;;;2.00;;
13002;SDS011;6566;57.702;11.984;2022-07-29T00:32:32;3.50;;;1.70;;
13002;SDS011;6566;57.702;11.984;2022-07-29T00:34:59;4.15;;;1.63;;
13002;SDS011;6566;57.702;11.984;2022-07-29T00:37:43;6.68;;;1.67;;
13002;SDS011;6566;57.702;11.984;2022-07-29T00:40:11;5.30;;;1.70;;
13002;SDS011;6566;57.702;11.984;2022-07-29T00:42:47;6.40;;;2.55;;
13002;SDS011;6566;57.702;11.984;2022-07-29T00:45:14;4.53;;;1.85;;
13002;SDS011;6566;57.702;11.984;2022-07-29T00:47:39;6.45;;;2.05;;
13002;SDS011;6566;57.702;11.984;2022-07-29T00:50:07;5.40;;;2.05;;
13002;SDS011;6566;57.702;11.984;2022-07-29T00:52:34;5.10;;;1.98;;
13002;SDS011;6566;57.702;11.984;2022-07-29T00:55:04;5.53;;;2.00;;
13002;SDS011;6566;57.702;11.984;2022-07-29T00:57:30;5.68;;;1.58;;
13002;SDS011;6566;57.702;11.984;2022-07-29T00:59:56;6.15;;;2.00;;
13002;SDS011;6566;57.702;11.984;2022-07-29T01:02:23;9.93;;;2.00;;
13002;SDS011;6566;57.702;11.984;2022-07-29T01:04:48;4.82;;;1.98;;
13002;SDS011;6566;57.702;11.984;2022-07-29T01:07:14;5.53;;;1.85;;
13002;SDS011;6566;57.702;11.984;2022-07-29T01:09:41;3.70;;;1.67;;
13002;SDS011;6566;57.702;11.984;2022-07-29T01:12:08;6.78;;;2.00;;
13002;SDS011;6566;57.702;11.984;2022-07-29T01:14:35;6.82;;;2.00;;
13002;SDS011;6566;57.702;11.984;2022-07-29T01:17:12;4.93;;;1.98;;
13002;SDS011;6566;57.702;11.984;2022-07-29T01:22:16;3.95;;;1.90;;
13002;SDS011;6566;57.702;11.984;2022-07-29T01:27:38;5.95;;;1.70;;
13002;SDS011;6566;57.702;11.984;2022-07-29T01:30:07;3.33;;;1.83;;
13002;SDS011;6566;57.702;11.984;2022-07-29T01:32:35;9.82;;;2.22;;
13002;SDS011;6566;57.702;11.984;2022-07-29T01:37:43;5.70;;;1.83;;
13002;SDS011;6566;57.702;11.984;2022-07-29T01:42:54;5.15;;;1.88;;
13002;SDS011;6566;57.702;11.984;2022-07-29T01:45:34;3.35;;;1.80;;
13002;SDS011;6566;57.702;11.984;2022-07-29T01:48:10;4.97;;;1.63;;
13002;SDS011;6566;57.702;11.984;2022-07-29T01:53:44;5.00;;;1.90;;
13002;SDS011;6566;57.702;11.984;2022-07-29T01:56:16;4.25;;;1.88;;
13002;SDS011;6566;57.702;11.984;2022-07-29T01:58:43;5.13;;;1.80;;
13002;SDS011;6566;57.702;11.984;2022-07-29T02:01:09;6.43;;;2.13;;
13002;SDS011;6566;57.702;11.984;2022-07-29T02:03:37;4.95;;;2.10;;
13002;SDS011;6566;57.702;11.984;2022-07-29T02:06:04;5.25;;;2.17;;
13002;SDS011;6566;57.702;11.984;2022-07-29T02:08:32;3.97;;;1.65;;
13002;SDS011;6566;57.702;11.984;2022-07-29T02:11:00;3.17;;;1.70;;
13002;SDS011;6566;57.702;11.984;2022-07-29T02:13:29;4.20;;;2.30;;
13002;SDS011;6566;57.702;11.984;2022-07-29T02:15:57;5.50;;;2.20;;
13002;SDS011;6566;57.702;11.984;2022-07-29T02:18:24;6.35;;;2.20;;
13002;SDS011;6566;57.702;11.984;2022-07-29T02:20:53;4.75;;;1.95;;
13002;SDS011;6566;57.702;11.984;2022-07-29T02:23:20;6.07;;;2.50;;
13002;SDS011;6566;57.702;11.984;2022-07-29T02:25:49;9.63;;;2.30;;
13002;SDS011;6566;57.702;11.984;2022-07-29T02:28:18;6.95;;;1.92;;
13002;SDS011;6566;57.702;11.984;2022-07-29T02:30:45;4.85;;;2.20;;
13002;SDS011;6566;57.702;11.984;2022-07-29T02:33:12;5.75;;;2.22;;
13002;SDS011;6566;57.702;11.984;2022-07-29T02:35:37;3.95;;;1.92;;
13002;SDS011;6566;57.702;11.984;2022-07-29T02:38:05;5.15;;;1.60;;
13002;SDS011;6566;57.702;11.984;2022-07-29T02:40:49;4.32;;;1.77;;
13002;SDS011;6566;57.702;11.984;2022-07-29T02:43:16;7.90;;;2.20;;
13002;SDS011;6566;57.702;11.984;2022-07-29T02:45:43;6.53;;;2.40;;
13002;SDS011;6566;57.702;11.984;2022-07-29T02:48:12;3.83;;;1.80;;
13002;SDS011;6566;57.702;11.984;2022-07-29T02:50:51;5.95;;;1.70;;
13002;SDS011;6566;57.702;11.984;2022-07-29T02:53:29;4.00;;;1.77;;
13002;SDS011;6566;57.702;11.984;2022-07-29T02:56:14;4.55;;;1.77;;
13002;SDS011;6566;57.702;11.984;2022-07-29T02:58:54;7.22;;;1.83;;
13002;SDS011;6566;57.702;11.984;2022-07-29T03:01:25;5.53;;;2.15;;
13002;SDS011;6566;57.702;11.984;2022-07-29T03:03:56;4.50;;;1.77;;
13002;SDS011;6566;57.702;11.984;2022-07-29T03:06:24;5.65;;;1.73;;
13002;SDS011;6566;57.702;11.984;2022-07-29T03:08:51;4.03;;;1.83;;
13002;SDS011;6566;57.702;11.984;2022-07-29T03:11:17;4.25;;;2.03;;
13002;SDS011;6566;57.702;11.984;2022-07-29T03:13:44;4.88;;;2.28;;
13002;SDS011;6566;57.702;11.984;2022-07-29T03:16:11;6.90;;;2.17;;
13002;SDS011;6566;57.702;11.984;2022-07-29T03:18:39;8.73;;;2.60;;
13002;SDS011;6566;57.702;11.984;2022-07-29T03:21:06;6.10;;;2.15;;
13002;SDS011;6566;57.702;11.984;2022-07-29T03:23:32;5.90;;;2.35;;
13002;SDS011;6566;57.702;11.984;2022-07-29T03:25:59;5.95;;;2.05;;
13002;SDS011;6566;57.702;11.984;2022-07-29T03:28:24;8.68;;;2.30;;
13002;SDS011;6566;57.702;11.984;2022-07-29T03:30:50;5.43;;;2.20;;
13002;SDS011;6566;57.702;11.984;2022-07-29T03:33:16;7.57;;;1.98;;
13002;SDS011;6566;57.702;11.984;2022-07-29T03:35:43;5.28;;;2.00;;
13002;SDS011;6566;57.702;11.984;2022-07-29T03:38:09;6.25;;;1.80;;
13002;SDS011;6566;57.702;11.984;2022-07-29T03:40:42;6.63;;;2.22;;
13002;SDS011;6566;57.702;11.984;2022-07-29T03:43:11;6.85;;;2.65;;
13002;SDS011;6566;57.702;11.984;2022-07-29T03:45:39;6.40;;;1.95;;
13002;SDS011;6566;57.702;11.984;2022-07-29T03:48:17;4.07;;;1.85;;
13002;SDS011;6566;57.702;11.984;2022-07-29T03:50:55;6.90;;;2.20;;
13002;SDS011;6566;57.702;11.984;2022-07-29T03:53:21;6.68;;;2.50;;
13002;SDS011;6566;57.702;11.984;2022-07-29T03:55:53;6.82;;;2.00;;
13002;SDS011;6566;57.702;11.984;2022-07-29T03:58:23;5.70;;;2.25;;
13002;SDS011;6566;57.702;11.984;2022-07-29T04:01:01;6.07;;;1.98;;
13002;SDS011;6566;57.702;11.984;2022-07-29T04:03:27;6.22;;;1.92;;
13002;SDS011;6566;57.702;11.984;2022-07-29T04:06:01;7.00;;;2.45;;
13002;SDS011;6566;57.702;11.984;2022-07-29T04:08:27;6.60;;;2.13;;
13002;SDS011;6566;57.702;11.984;2022-07-29T04:10:54;4.30;;;2.00;;
13002;SDS011;6566;57.702;11.984;2022-07-29T04:13:24;6.90;;;2.17;;
13002;SDS011;6566;57.702;11.984;2022-07-29T04:15:50;8.93;;;2.10;;
13002;SDS011;6566;57.702;11.984;2022-07-29T04:18:17;5.50;;;2.10;;
13002;SDS011;6566;57.702;11.984;2022-07-29T04:20:43;6.13;;;2.40;;
13002;SDS011;6566;57.702;11.984;2022-07-29T04:23:09;6.35;;;1.77;;
13002;SDS011;6566;57.702;11.984;2022-07-29T04:25:39;4.57;;;2.05;;
13002;SDS011;6566;57.702;11.984;2022-07-29T04:28:06;5.95;;;2.00;;
13002;SDS011;6566;57.702;11.984;2022-07-29T04:30:33;6.05;;;2.00;;
13002;SDS011;6566;57.702;11.984;2022-07-29T04:32:59;4.47;;;1.90;;
13002;SDS011;6566;57.702;11.984;2022-07-29T04:35:25;5.35;;;1.90;;
13002;SDS011;6566;57.702;11.984;2022-07-29T04:37:53;7.50;;;2.30;;
13002;SDS011;6566;57.702;11.984;2022-07-29T04:40:20;5.05;;;2.00;;
13002;SDS011;6566;57.702;11.984;2022-07-29T04:42:47;3.75;;;2.03;;
13002;SDS011;6566;57.702;11.984;2022-07-29T04:45:13;2.72;;;2.00;;
13002;SDS011;6566;57.702;11.984;2022-07-29T04:47:40;5.10;;;2.10;;
13002;SDS011;6566;57.702;11.984;2022-07-29T04:50:06;3.80;;;2.00;;
13002;SDS011;6566;57.702;11.984;2022-07-29T04:52:33;7.35;;;2.30;;
13002;SDS011;6566;57.702;11.984;2022-07-29T04:55:02;5.65;;;2.05;;
13002;SDS011;6566;57.702;11.984;2022-07-29T04:57:28;5.25;;;2.00;;
13002;SDS011;6566;57.702;11.984;2022-07-29T04:59:54;4.93;;;2.03;;
13002;SDS011;6566;57.702;11.984;2022-07-29T05:02:19;4.82;;;1.95;;
13002;SDS011;6566;57.702;11.984;2022-07-29T05:04:47;4.65;;;2.30;;
13002;SDS011;6566;57.702;11.984;2022-07-29T05:07:13;3.47;;;2.05;;
13002;SDS011;6566;57.702;11.984;2022-07-29T05:09:40;7.72;;;2.63;;
13002;SDS011;6566;57.702;11.984;2022-07-29T05:12:06;4.07;;;2.15;;
13002;SDS011;6566;57.702;11.984;2022-07-29T05:14:33;6.28;;;2.20;;
13002;SDS011;6566;57.702;11.984;2022-07-29T05:16:59;5.72;;;1.90;;
13002;SDS011;6566;57.702;11.984;2022-07-29T05:19:26;6.20;;;2.05;;
13002;SDS011;6566;57.702;11.984;2022-07-29T05:21:52;5.45;;;2.55;;
13002;SDS011;6566;57.702;11.984;2022-07-29T05:24:19;7.18;;;2.53;;
13002;SDS011;6566;57.702;11.984;2022-07-29T05:26:45;5.15;;;2.13;;
13002;SDS011;6566;57.702;11.984;2022-07-29T05:29:12;8.30;;;2.28;;
13002;SDS011;6566;57.702;11.984;2022-07-29T05:31:38;6.03;;;2.17;;
13002;SDS011;6566;57.702;11.984;2022-07-29T05:34:03;6.88;;;2.22;;
13002;SDS011;6566;57.702;11.984;2022-07-29T05:36:30;4.88;;;2.30;;
13002;SDS011;6566;57.702;11.984;2022-07-29T05:38:56;7.30;;;2.63;;
13002;SDS011;6566;57.702;11.984;2022-07-29T05:41:23;7.57;;;2.00;;
13002;SDS011;6566;57.702;11.984;2022-07-29T05:43:50;7.78;;;2.60;;
13002;SDS011;6566;57.702;11.984;2022-07-29T05:46:16;6.32;;;2.63;;
13002;SDS011;6566;57.702;11.984;2022-07-29T05:48:42;3.95;;;2.35;;
13002;SDS011;6566;57.702;11.984;2022-07-29T05:51:09;7.93;;;2.40;;
13002;SDS011;6566;57.702;11.984;2022-07-29T05:53:36;4.20;;;2.42;;
13002;SDS011;6566;57.702;11.984;2022-07-29T05:56:03;7.10;;;2.53;;
13002;SDS011;6566;57.702;11.984;2022-07-29T05:58:31;7.75;;;2.70;;
13002;SDS011;6566;57.702;11.984;2022-07-29T06:00:58;6.60;;;2.88;;
13002;SDS011;6566;57.702;11.984;2022-07-29T06:03:24;8.40;;;3.03;;
13002;SDS011;6566;57.702;11.984;2022-07-29T06:05:51;11.00;;;2.78;;
13002;SDS011;6566;57.702;11.984;2022-07-29T06:08:17;9.30;;;2.47;;
13002;SDS011;6566;57.702;11.984;2022-07-29T06:10:43;6.80;;;2.80;;
13002;SDS011;6566;57.702;11.984;2022-07-29T06:13:10;8.82;;;3.13;;
13002;SDS011;6566;57.702;11.984;2022-07-29T06:15:35;8.30;;;2.60;;
13002;SDS011;6566;57.702;11.984;2022-07-29T06:18:02;5.60;;;2.47;;
13002;SDS011;6566;57.702;11.984;2022-07-29T06:20:31;7.07;;;2.30;;
13002;SDS011;6566;57.702;11.984;2022-07-29T06:22:58;11.43;;;2.65;;
13002;SDS011;6566;57.702;11.984;2022-07-29T06:25:25;8.05;;;2.40;;
13002;SDS011;6566;57.702;11.984;2022-07-29T06:27:55;6.45;;;2.30;;
13002;SDS011;6566;57.702;11.984;2022-07-29T06:30:20;7.00;;;2.53;;
13002;SDS011;6566;57.702;11.984;2022-07-29T06:32:46;4.10;;;1.83;;
13002;SDS011;6566;57.702;11.984;2022-07-29T06:35:13;4.85;;;1.80;;
13002;SDS011;6566;57.702;11.984;2022-07-29T06:37:38;5.85;;;2.10;;
13002;SDS011;6566;57.702;11.984;2022-07-29T06:40:04;6.03;;;1.90;;
13002;SDS011;6566;57.702;11.984;2022-07-29T06:42:49;6.40;;;2.00;;
13002;SDS011;6566;57.702;11.984;2022-07-29T06:45:16;6.70;;;1.75;;
13002;SDS011;6566;57.702;11.984;2022-07-29T06:47:42;8.23;;;2.03;;
13002;SDS011;6566;57.702;11.984;2022-07-29T06:50:08;3.90;;;1.70;;
13002;SDS011;6566;57.702;11.984;2022-07-29T06:52:41;5.53;;;2.17;;
13002;SDS011;6566;57.702;11.984;2022-07-29T06:55:08;5.32;;;1.90;;
13002;SDS011;6566;57.702;11.984;2022-07-29T06:57:34;6.13;;;1.70;;
13002;SDS011;6566;57.702;11.984;2022-07-29T07:00:01;6.03;;;1.63;;
13002;SDS011;6566;57.702;11.984;2022-07-29T07:02:32;6.70;;;1.80;;
13002;SDS011;6566;57.702;11.984;2022-07-29T07:04:59;3.65;;;1.83;;
13002;SDS011;6566;57.702;11.984;2022-07-29T07:07:24;3.78;;;1.45;;
13002;SDS011;6566;57.702;11.984;2022-07-29T07:09:49;6.75;;;1.67;;
13002;SDS011;6566;57.702;11.984;2022-07-29T07:12:17;5.03;;;1.80;;
13002;SDS011;6566;57.702;11.984;2022-07-29T07:14:43;8.95;;;1.70;;
13002;SDS011;6566;57.702;11.984;2022-07-29T07:17:09;3.70;;;1.33;;
13002;SDS011;6566;57.702;11.984;2022-07-29T07:19:36;3.92;;;1.42;;
13002;SDS011;6566;57.702;11.984;2022-07-29T07:22:02;4.28;;;1.40;;
13002;SDS011;6566;57.702;11.984;2022-07-29T07:24:28;6.22;;;1.48;;
13002;SDS011;6566;57.702;11.984;2022-07-29T07:26:56;3.55;;;1.65;;
13002;SDS011;6566;57.702;11.984;2022-07-29T07:29:23;4.40;;;1.77;;
13002;SDS011;6566;57.702;11.984;2022-07-29T07:31:49;7.32;;;1.95;;
13002;SDS011;6566;57.702;11.984;2022-07-29T07:34:15;4.25;;;1.75;;
13002;SDS011;6566;57.702;11.984;2022-07-29T07:36:42;2.47;;;1.20;;
13002;SDS011;6566;57.702;11.984;2022-07-29T07:39:08;6.95;;;1.33;;
13002;SDS011;6566;57.702;11.984;2022-07-29T07:41:34;5.97;;;1.60;;
13002;SDS011;6566;57.702;11.984;2022-07-29T07:44:01;3.85;;;1.65;;
13002;SDS011;6566;57.702;11.984;2022-07-29T07:46:27;2.92;;;1.40;;
13002;SDS011;6566;57.702;11.984;2022-07-29T07:48:54;4.07;;;1.30;;
13002;SDS011;6566;57.702;11.984;2022-07-29T07:51:20;4.60;;;1.45;;
13002;SDS011;6566;57.702;11.984;2022-07-29T07:53:46;6.38;;;1.80;;
13002;SDS011;6566;57.702;11.984;2022-07-29T07:56:16;7.28;;;1.88;;
13002;SDS011;6566;57.702;11.984;2022-07-29T07:58:42;7.60;;;1.70;;
13002;SDS011;6566;57.702;11.984;2022-07-29T08:01:09;7.25;;;1.65;;
13002;SDS011;6566;57.702;11.984;2022-07-29T08:03:35;4.20;;;1.60;;
13002;SDS011;6566;57.702;11.984;2022-07-29T08:06:03;3.40;;;1.60;;
13002;SDS011;6566;57.702;11.984;2022-07-29T08:08:29;3.45;;;1.40;;
13002;SDS011;6566;57.702;11.984;2022-07-29T08:10:56;7.38;;;1.48;;
13002;SDS011;6566;57.702;11.984;2022-07-29T08:13:22;4.57;;;1.90;;
13002;SDS011;6566;57.702;11.984;2022-07-29T08:15:48;11.38;;;2.08;;
13002;SDS011;6566;57.702;11.984;2022-07-29T08:18:27;5.53;;;1.70;;
13002;SDS011;6566;57.702;11.984;2022-07-29T08:20:53;4.38;;;1.63;;
13002;SDS011;6566;57.702;11.984;2022-07-29T08:23:20;6.53;;;1.83;;
13002;SDS011;6566;57.702;11.984;2022-07-29T08:25:47;6.10;;;1.83;;
13002;SDS011;6566;57.702;11.984;2022-07-29T08:28:13;3.55;;;1.70;;
13002;SDS011;6566;57.702;11.984;2022-07-29T08:30:40;5.03;;;1.65;;
13002;SDS011;6566;57.702;11.984;2022-07-29T08:33:06;2.22;;;1.40;;
13002;SDS011;6566;57.702;11.984;2022-07-29T08:35:33;6.10;;;1.80;;
13002;SDS011;6566;57.702;11.984;2022-07-29T08:37:59;4.53;;;1.83;;
13002;SDS011;6566;57.702;11.984;2022-07-29T08:40:26;3.78;;;1.30;;
13002;SDS011;6566;57.702;11.984;2022-07-29T08:42:52;5.65;;;1.33;;
13002;SDS011;6566;57.702;11.984;2022-07-29T08:45:19;3.80;;;1.70;;
13002;SDS011;6566;57.702;11.984;2022-07-29T08:47:46;6.05;;;1.77;;
13002;SDS011;6566;57.702;11.984;2022-07-29T08:50:12;4.55;;;1.60;;
13002;SDS011;6566;57.702;11.984;2022-07-29T08:52:40;4.13;;;1.50;;
13002;SDS011;6566;57.702;11.984;2022-07-29T08:55:07;5.85;;;1.58;;
13002;SDS011;6566;57.702;11.984;2022-07-29T08:57:38;3.08;;;1.35;;
13002;SDS011;6566;57.702;11.984;2022-07-29T09:00:05;3.65;;;1.50;;
13002;SDS011;6566;57.702;11.984;2022-07-29T09:02:35;3.70;;;1.25;;
13002;SDS011;6566;57.702;11.984;2022-07-29T09:05:14;5.28;;;1.35;;
13002;SDS011;6566;57.702;11.984;2022-07-29T09:07:40;4.05;;;1.30;;
13002;SDS011;6566;57.702;11.984;2022-07-29T09:10:09;4.93;;;1.45;;
13002;SDS011;6566;57.702;11.984;2022-07-29T09:12:36;4.97;;;1.83;;
13002;SDS011;6566;57.702;11.984;2022-07-29T09:15:04;5.60;;;1.95;;
13002;SDS011;6566;57.702;11.984;2022-07-29T09:20:26;4.05;;;1.42;;
13002;SDS011;6566;57.702;11.984;2022-07-29T09:23:13;3.78;;;1.20;;
13002;SDS011;6566;57.702;11.984;2022-07-29T09:25:40;5.15;;;1.65;;
13002;SDS011;6566;57.702;11.984;2022-07-29T09:28:13;4.13;;;1.75;;
13002;SDS011;6566;57.702;11.984;2022-07-29T09:31:01;4.30;;;1.55;;
13002;SDS011;6566;57.702;11.984;2022-07-29T09:33:33;5.13;;;1.95;;
13002;SDS011;6566;57.702;11.984;2022-07-29T09:36:08;4.97;;;1.65;;
13002;SDS011;6566;57.702;11.984;2022-07-29T09:38:35;7.13;;;2.00;;
13002;SDS011;6566;57.702;11.984;2022-07-29T09:41:03;5.15;;;1.58;;
13002;SDS011;6566;57.702;11.984;2022-07-29T09:43:30;5.10;;;1.95;;
13002;SDS011;6566;57.702;11.984;2022-07-29T09:46:03;4.45;;;1.70;;
13002;SDS011;6566;57.702;11.984;2022-07-29T09:48:35;3.20;;;1.65;;
13002;SDS011;6566;57.702;11.984;2022-07-29T09:51:02;4.95;;;1.92;;
13002;SDS011;6566;57.702;11.984;2022-07-29T09:53:32;5.20;;;1.60;;
13002;SDS011;6566;57.702;11.984;2022-07-29T09:56:00;4.50;;;1.73;;
13002;SDS011;6566;57.702;11.984;2022-07-29T09:58:26;4.88;;;1.90;;
13002;SDS011;6566;57.702;11.984;2022-07-29T10:00:53;3.88;;;1.58;;
13002;SDS011;6566;57.702;11.984;2022-07-29T10:03:21;3.60;;;1.75;;
13002;SDS011;6566;57.702;11.984;2022-07-29T10:06:11;3.83;;;1.38;;
13002;SDS011;6566;57.702;11.984;2022-07-29T10:08:37;2.38;;;1.45;;
13002;SDS011;6566;57.702;11.984;2022-07-29T10:11:14;3.10;;;1.40;;
13002;SDS011;6566;57.702;11.984;2022-07-29T10:13:40;2.25;;;1.15;;
13002;SDS011;6566;57.702;11.984;2022-07-29T10:16:10;3.88;;;1.40;;
13002;SDS011;6566;57.702;11.984;2022-07-29T10:18:41;2.58;;;1.30;;
13002;SDS011;6566;57.702;11.984;2022-07-29T10:21:07;2.50;;;1.00;;
13002;SDS011;6566;57.702;11.984;2022-07-29T10:23:34;3.30;;;0.90;;
13002;SDS011;6566;57.702;11.984;2022-07-29T10:26:01;2.92;;;0.98;;
13002;SDS011;6566;57.702;11.984;2022-07-29T10:28:28;2.83;;;0.70;;
13002;SDS011;6566;57.702;11.984;2022-07-29T10:30:59;3.95;;;0.98;;
13002;SDS011;6566;57.702;11.984;2022-07-29T10:42:11;1.90;;;0.80;;
13002;SDS011;6566;57.702;11.984;2022-07-29T10:44:41;2.28;;;1.10;;
13002;SDS011;6566;57.702;11.984;2022-07-29T10:47:07;2.33;;;1.02;;
13002;SDS011;6566;57.702;11.984;2022-07-29T10:49:34;1.27;;;0.65;;
13002;SDS011;6566;57.702;11.984;2022-07-29T10:52:07;2.25;;;0.88;;
13002;SDS011;6566;57.702;11.984;2022-07-29T10:54:42;2.00;;;0.75;;
13002;SDS011;6566;57.702;11.984;2022-07-29T10:57:27;3.05;;;0.80;;
13002;SDS011;6566;57.702;11.984;2022-07-29T11:02:42;0.85;;;0.75;;
13002;SDS011;6566;57.702;11.984;2022-07-29T11:05:13;2.80;;;1.20;;
13002;SDS011;6566;57.702;11.984;2022-07-29T11:08:16;4.72;;;1.20;;
13002;SDS011;6566;57.702;11.984;2022-07-29T11:10:28;3.30;;;0.93;;
13002;SDS011;6566;57.702;11.984;2022-07-29T11:12:55;2.47;;;1.00;;
13002;SDS011;6566;57.702;11.984;2022-07-29T11:15:21;4.43;;;1.25;;
13002;SDS011;6566;57.702;11.984;2022-07-29T11:23:19;4.53;;;1.08;;
13002;SDS011;6566;57.702;11.984;2022-07-29T11:25:54;1.77;;;0.85;;
13002;SDS011;6566;57.702;11.984;2022-07-29T11:28:39;2.13;;;0.95;;
13002;SDS011;6566;57.702;11.984;2022-07-29T11:31:08;1.13;;;0.70;;
13002;SDS011;6566;57.702;11.984;2022-07-29T11:33:35;1.88;;;0.80;;
13002;SDS011;6566;57.702;11.984;2022-07-29T11:36:12;1.00;;;0.75;;
13002;SDS011;6566;57.702;11.984;2022-07-29T11:38:39;3.08;;;0.75;;
13002;SDS011;6566;57.702;11.984;2022-07-29T11:43:54;1.65;;;0.93;;
13002;SDS011;6566;57.702;11.984;2022-07-29T11:49:06;3.50;;;1.00;;
13002;SDS011;6566;57.702;11.984;2022-07-29T11:51:32;2.25;;;1.30;;
13002;SDS011;6566;57.702;11.984;2022-07-29T11:53:59;2.10;;;0.90;;
13002;SDS011;6566;57.702;11.984;2022-07-29T11:56:26;1.98;;;1.00;;
13002;SDS011;6566;57.702;11.984;2022-07-29T11:59:06;2.92;;;1.20;;
13002;SDS011;6566;57.702;11.984;2022-07-29T12:01:33;2.35;;;1.15;;
13002;SDS011;6566;57.702;11.984;2022-07-29T12:04:02;7.15;;;1.20;;
13002;SDS011;6566;57.702;11.984;2022-07-29T12:06:32;3.00;;;1.20;;
13002;SDS011;6566;57.702;11.984;2022-07-29T12:08:59;3.35;;;1.02;;
13002;SDS011;6566;57.702;11.984;2022-07-29T12:11:26;4.30;;;1.40;;
13002;SDS011;6566;57.702;11.984;2022-07-29T12:13:54;3.45;;;1.17;;
13002;SDS011;6566;57.702;11.984;2022-07-29T12:16:21;2.85;;;1.00;;
13002;SDS011;6566;57.702;11.984;2022-07-29T12:19:00;3.08;;;0.98;;
13002;SDS011;6566;57.702;11.984;2022-07-29T12:21:25;1.77;;;0.80;;
13002;SDS011;6566;57.702;11.984;2022-07-29T12:23:55;1.48;;;0.75;;
13002;SDS011;6566;57.702;11.984;2022-07-29T12:26:22;3.38;;;1.00;;
13002;SDS011;6566;57.702;11.984;2022-07-29T12:28:48;1.88;;;1.00;;
13002;SDS011;6566;57.702;11.984;2022-07-29T12:31:15;2.63;;;1.00;;
13002;SDS011;6566;57.702;11.984;2022-07-29T12:33:42;1.42;;;0.80;;
13002;SDS011;6566;57.702;11.984;2022-07-29T12:36:09;1.25;;;0.80;;
13002;SDS011;6566;57.702;11.984;2022-07-29T12:38:35;4.53;;;1.05;;
13002;SDS011;6566;57.702;11.984;2022-07-29T12:41:02;2.72;;;0.90;;
13002;SDS011;6566;57.702;11.984;2022-07-29T12:43:30;2.60;;;0.95;;
13002;SDS011;6566;57.702;11.984;2022-07-29T12:45:56;2.70;;;0.90;;
13002;SDS011;6566;57.702;11.984;2022-07-29T12:48:38;4.03;;;1.20;;
13002;SDS011;6566;57.702;11.984;2022-07-29T12:51:05;3.40;;;1.42;;
13002;SDS011;6566;57.702;11.984;2022-07-29T12:53:33;4.93;;;1.38;;
13002;SDS011;6566;57.702;11.984;2022-07-29T12:55:59;3.47;;;1.23;;
13002;SDS011;6566;57.702;11.984;2022-07-29T12:58:36;2.25;;;0.88;;
13002;SDS011;6566;57.702;11.984;2022-07-29T13:03:47;2.33;;;1.10;;
13002;SDS011;6566;57.702;11.984;2022-07-29T13:11:42;2.40;;;1.05;;
13002;SDS011;6566;57.702;11.984;2022-07-29T13:14:09;6.75;;;1.17;;
13002;SDS011;6566;57.702;11.984;2022-07-29T13:16:37;2.17;;;1.10;;
13002;SDS011;6566;57.702;11.984;2022-07-29T13:19:10;2.30;;;0.98;;
13002;SDS011;6566;57.702;11.984;2022-07-29T13:21:36;5.22;;;1.10;;
13002;SDS011;6566;57.702;11.984;2022-07-29T13:24:04;4.05;;;1.25;;
13002;SDS011;6566;57.702;11.984;2022-07-29T13:26:31;3.40;;;1.38;;
13002;SDS011;6566;57.702;11.984;2022-07-29T13:28:57;3.58;;;1.40;;
13002;SDS011;6566;57.702;11.984;2022-07-29T13:31:24;1.65;;;1.27;;
13002;SDS011;6566;57.702;11.984;2022-07-29T13:33:50;2.83;;;1.30;;
13002;SDS011;6566;57.702;11.984;2022-07-29T13:36:16;2.75;;;1.15;;
13002;SDS011;6566;57.702;11.984;2022-07-29T13:38:43;3.88;;;1.38;;
13002;SDS011;6566;57.702;11.984;2022-07-29T13:41:10;4.45;;;1.30;;
13002;SDS011;6566;57.702;11.984;2022-07-29T13:43:36;3.95;;;1.35;;
13002;SDS011;6566;57.702;11.984;2022-07-29T13:46:02;4.47;;;1.30;;
13002;SDS011;6566;57.702;11.984;2022-07-29T13:48:29;1.27;;;0.93;;
13002;SDS011;6566;57.702;11.984;2022-07-29T13:50:56;1.98;;;1.15;;
13002;SDS011;6566;57.702;11.984;2022-07-29T13:53:22;4.82;;;1.20;;
13002;SDS011;6566;57.702;11.984;2022-07-29T13:55:48;4.18;;;1.40;;
13002;SDS011;6566;57.702;11.984;2022-07-29T13:58:16;4.53;;;1.23;;
13002;SDS011;6566;57.702;11.984;2022-07-29T14:00:42;2.63;;;1.25;;
13002;SDS011;6566;57.702;11.984;2022-07-29T14:03:09;3.25;;;1.10;;
13002;SDS011;6566;57.702;11.984;2022-07-29T14:05:36;4.68;;;1.40;;
13002;SDS011;6566;57.702;11.984;2022-07-29T14:08:03;3.03;;;1.20;;
13002;SDS011;6566;57.702;11.984;2022-07-29T14:10:30;3.30;;;1.40;;
13002;SDS011;6566;57.702;11.984;2022-07-29T14:12:56;3.80;;;1.30;;
13002;SDS011;6566;57.702;11.984;2022-07-29T14:15:23;3.50;;;1.27;;
13002;SDS011;6566;57.702;11.984;2022-07-29T14:17:49;3.55;;;1.17;;
13002;SDS011;6566;57.702;11.984;2022-07-29T14:20:16;2.78;;;1.10;;
13002;SDS011;6566;57.702;11.984;2022-07-29T14:22:43;6.07;;;1.70;;
13002;SDS011;6566;57.702;11.984;2022-07-29T14:25:09;2.92;;;1.15;;
13002;SDS011;6566;57.702;11.984;2022-07-29T14:27:36;3.22;;;1.20;;
13002;SDS011;6566;57.702;11.984;2022-07-29T14:30:02;4.20;;;1.40;;
13002;SDS011;6566;57.702;11.984;2022-07-29T14:32:27;4.68;;;1.20;;
13002;SDS011;6566;57.702;11.984;2022-07-29T14:34:55;4.10;;;1.10;;
13002;SDS011;6566;57.702;11.984;2022-07-29T14:37:21;3.47;;;1.20;;
13002;SDS011;6566;57.702;11.984;2022-07-29T14:39:47;2.47;;;1.25;;
13002;SDS011;6566;57.702;11.984;2022-07-29T14:42:13;2.90;;;0.80;;
13002;SDS011;6566;57.702;11.984;2022-07-29T14:44:43;1.73;;;1.05;;
13002;SDS011;6566;57.702;11.984;2022-07-29T14:47:09;2.95;;;1.30;;
13002;SDS011;6566;57.702;11.984;2022-07-29T14:49:36;3.13;;;0.98;;
13002;SDS011;6566;57.702;11.984;2022-07-29T14:52:03;3.00;;;1.10;;
13002;SDS011;6566;57.702;11.984;2022-07-29T14:54:29;2.00;;;0.98;;
13002;SDS011;6566;57.702;11.984;2022-07-29T14:56:56;2.17;;;0.98;;
13002;SDS011;6566;57.702;11.984;2022-07-29T14:59:23;0.82;;;0.73;;
13002;SDS011;6566;57.702;11.984;2022-07-29T15:01:50;2.15;;;0.88;;
13002;SDS011;6566;57.702;11.984;2022-07-29T15:04:16;2.13;;;1.02;;
13002;SDS011;6566;57.702;11.984;2022-07-29T15:06:43;2.67;;;1.10;;
13002;SDS011;6566;57.702;11.984;2022-07-29T15:09:10;3.13;;;1.30;;
13002;SDS011;6566;57.702;11.984;2022-07-29T15:11:37;2.90;;;1.38;;
13002;SDS011;6566;57.702;11.984;2022-07-29T15:14:03;3.30;;;1.05;;
13002;SDS011;6566;57.702;11.984;2022-07-29T15:16:30;2.55;;;1.00;;
13002;SDS011;6566;57.702;11.984;2022-07-29T15:18:56;3.00;;;1.05;;
13002;SDS011;6566;57.702;11.984;2022-07-29T15:21:24;4.95;;;1.35;;
13002;SDS011;6566;57.702;11.984;2022-07-29T15:23:50;4.45;;;1.00;;
13002;SDS011;6566;57.702;11.984;2022-07-29T15:26:15;1.73;;;0.95;;
13002;SDS011;6566;57.702;11.984;2022-07-29T15:28:42;1.80;;;1.00;;
13002;SDS011;6566;57.702;11.984;2022-07-29T15:31:08;1.90;;;0.90;;
13002;SDS011;6566;57.702;11.984;2022-07-29T15:33:35;1.67;;;0.77;;
13002;SDS011;6566;57.702;11.984;2022-07-29T15:36:02;1.63;;;0.85;;
13002;SDS011;6566;57.702;11.984;2022-07-29T15:38:31;2.70;;;1.10;;
13002;SDS011;6566;57.702;11.984;2022-07-29T15:40:57;3.65;;;1.15;;